Bethel, OH (45106)

10:35 AM EDT on June 30, 2015 (GMT -0400)
Koehler Estates | | Change Station
CLOSE
Current Station
Personal Weather Station
Location: New Richmond, OH
Elevation: 863 ft
Nearby Weather Stations

Elev 863 ft 38.96 °N, 84.21 °W | Updated 8 seconds ago

Partly Cloudy
Partly Cloudy
73.6 °F
Feels Like 74 °F
N
0.0
Wind Variable Wind from SSE
Gusts 0.0 mph

Today
High -- | Low -- °F
--% Chance of Precip.
Yesterday
High -- | Low -- °F
Precip. -- in
6:14 AM 9:05 PM
Waxing Gibbous, 97% visible
Pressure 29.87 in
Visibility 7.0 miles
Clouds Clear
Heat Index 74 °F
Dew Point 67 °F
Humidity 80%
Rainfall in
Snow Depth Not available.
UV 3.0 out of 12
Pollen 2.40 out of 12
Air Quality Not available.
Flu Activity Sporadic
METAR KI69 301115Z AUTO 21005KT 7SM CLR 18/17 A2987 RMK AO1

More Conditions Fewer Conditions

Pressure 29.87 in
Visibility 7.0 miles
Clouds Clear
Heat Index 74 °F
Dew Point 67 °F
Humidity 80%
Rainfall in
Snow Depth Not available.
UV 3.0 out of 12
Pollen 2.40 out of 12
Air Quality Not available.
Flu Activity Sporadic
METAR KI69 301115Z AUTO 21005KT 7SM CLR 18/17 A2987 RMK AO1

More Conditions Fewer Conditions

10-Day Weather Forecast

×

Almanac

Astronomy

Jun. 30, 2015 Rise Set
Actual Time
Civil Twilight
Nautical Twilight
Astronomical Twilight
Moon
Length of Visible Light
Length of Day
Tomorrow will be .
, % of the Moon is Illuminated

Today's Extremes

State Highs State Lows

Community

WunderPhotos

Upload Photos

1,834,008 photos uploaded!

WunderBlogs® & News

Nearby

Air Quality

  Air Quality AQ Index Pollutant
Not available.

Snow Depth

Station Depth Elevation

Earthquake Activity

City Distance Mag. Time & Date
Minimum magnitude displayed is 2.5.

Coastal Water Temperatures

Place Temperature

Stations

Nearby Weather Stations

Station Location Temp. Windchill Dew Point Humidity Wind Precip. Elev Updated Type